sensor_id;sensor_type;location;lat;lon;timestamp;pressure;altitude;pressure_sealevel;temperature
28803;BMP280;15949;55.656;37.422;2024-03-08T00:00:31;99536.09;;;-6.20
28803;BMP280;15949;55.656;37.422;2024-03-08T00:05:38;99539.88;;;-6.29
28803;BMP280;15949;55.656;37.422;2024-03-08T00:10:44;99531.59;;;-6.36
28803;BMP280;15949;55.656;37.422;2024-03-08T00:15:50;99513.25;;;-6.38
28803;BMP280;15949;55.656;37.422;2024-03-08T00:20:56;99509.00;;;-6.44
28803;BMP280;15949;55.656;37.422;2024-03-08T00:26:01;99505.13;;;-6.46
28803;BMP280;15949;55.656;37.422;2024-03-08T00:31:12;99500.84;;;-6.46
28803;BMP280;15949;55.656;37.422;2024-03-08T00:36:18;99494.75;;;-6.38
28803;BMP280;15949;55.656;37.422;2024-03-08T00:41:23;99495.22;;;-6.30
28803;BMP280;15949;55.656;37.422;2024-03-08T00:46:31;99479.16;;;-6.17
28803;BMP280;15949;55.656;37.422;2024-03-08T00:51:37;99478.75;;;-6.21
28803;BMP280;15949;55.656;37.422;2024-03-08T00:56:43;99462.41;;;-6.25
28803;BMP280;15949;55.656;37.422;2024-03-08T01:01:49;99472.56;;;-6.25
28803;BMP280;15949;55.656;37.422;2024-03-08T01:06:58;99460.47;;;-6.23
28803;BMP280;15949;55.656;37.422;2024-03-08T01:12:04;99444.81;;;-6.20
28803;BMP280;15949;55.656;37.422;2024-03-08T01:17:12;99451.44;;;-6.19
28803;BMP280;15949;55.656;37.422;2024-03-08T01:22:19;99444.81;;;-6.20
28803;BMP280;15949;55.656;37.422;2024-03-08T01:27:24;99434.66;;;-6.20
28803;BMP280;15949;55.656;37.422;2024-03-08T01:32:30;99433.56;;;-6.24
28803;BMP280;15949;55.656;37.422;2024-03-08T01:37:36;99441.44;;;-6.32
28803;BMP280;15949;55.656;37.422;2024-03-08T01:42:42;99442.72;;;-6.41
28803;BMP280;15949;55.656;37.422;2024-03-08T01:47:48;99434.81;;;-6.33
28803;BMP280;15949;55.656;37.422;2024-03-08T01:52:54;99425.94;;;-6.24
28803;BMP280;15949;55.656;37.422;2024-03-08T01:58:01;99426.50;;;-6.22
28803;BMP280;15949;55.656;37.422;2024-03-08T02:03:08;99428.03;;;-6.21
28803;BMP280;15949;55.656;37.422;2024-03-08T02:08:14;99428.28;;;-6.40
28803;BMP280;15949;55.656;37.422;2024-03-08T02:13:20;99428.13;;;-6.64
28803;BMP280;15949;55.656;37.422;2024-03-08T02:18:26;99427.44;;;-6.77
28803;BMP280;15949;55.656;37.422;2024-03-08T02:23:32;99413.91;;;-6.89
28803;BMP280;15949;55.656;37.422;2024-03-08T02:28:39;99415.44;;;-6.88
28803;BMP280;15949;55.656;37.422;2024-03-08T02:33:45;99415.69;;;-6.96
28803;BMP280;15949;55.656;37.422;2024-03-08T02:38:52;99414.81;;;-7.09
28803;BMP280;15949;55.656;37.422;2024-03-08T02:44:00;99407.13;;;-7.20
28803;BMP280;15949;55.656;37.422;2024-03-08T02:49:06;99400.38;;;-7.33
28803;BMP280;15949;55.656;37.422;2024-03-08T02:54:13;99405.09;;;-7.36
28803;BMP280;15949;55.656;37.422;2024-03-08T02:59:19;99408.63;;;-7.44
28803;BMP280;15949;55.656;37.422;2024-03-08T03:04:24;99402.00;;;-7.45
28803;BMP280;15949;55.656;37.422;2024-03-08T03:09:30;99395.59;;;-7.41
28803;BMP280;15949;55.656;37.422;2024-03-08T03:14:38;99382.34;;;-7.43
28803;BMP280;15949;55.656;37.422;2024-03-08T03:19:43;99382.03;;;-7.53
28803;BMP280;15949;55.656;37.422;2024-03-08T03:24:49;99376.97;;;-7.53
28803;BMP280;15949;55.656;37.422;2024-03-08T03:29:57;99381.59;;;-7.50
28803;BMP280;15949;55.656;37.422;2024-03-08T03:35:03;99358.13;;;-7.57
28803;BMP280;15949;55.656;37.422;2024-03-08T03:40:12;99362.34;;;-7.51
28803;BMP280;15949;55.656;37.422;2024-03-08T03:45:18;99345.69;;;-7.65
28803;BMP280;15949;55.656;37.422;2024-03-08T03:50:25;99337.69;;;-7.62
28803;BMP280;15949;55.656;37.422;2024-03-08T03:55:31;99342.75;;;-7.62
28803;BMP280;15949;55.656;37.422;2024-03-08T04:00:36;99336.84;;;-7.50
28803;BMP280;15949;55.656;37.422;2024-03-08T04:05:42;99341.84;;;-7.43
28803;BMP280;15949;55.656;37.422;2024-03-08T04:10:48;99349.28;;;-7.48
28803;BMP280;15949;55.656;37.422;2024-03-08T04:15:54;99348.88;;;-7.45
28803;BMP280;15949;55.656;37.422;2024-03-08T04:20:59;99334.13;;;-7.48
28803;BMP280;15949;55.656;37.422;2024-03-08T04:26:05;99338.75;;;-7.45
28803;BMP280;15949;55.656;37.422;2024-03-08T04:31:12;99332.66;;;-7.37
28803;BMP280;15949;55.656;37.422;2024-03-08T04:36:18;99323.69;;;-7.33
28803;BMP280;15949;55.656;37.422;2024-03-08T04:41:25;99330.25;;;-7.26
28803;BMP280;15949;55.656;37.422;2024-03-08T04:46:31;99332.03;;;-7.33
28803;BMP280;15949;55.656;37.422;2024-03-08T04:51:37;99325.84;;;-7.37
28803;BMP280;15949;55.656;37.422;2024-03-08T04:56:43;99318.75;;;-7.22
28803;BMP280;15949;55.656;37.422;2024-03-08T05:01:48;99310.44;;;-7.11
28803;BMP280;15949;55.656;37.422;2024-03-08T05:06:55;99307.75;;;-7.16
28803;BMP280;15949;55.656;37.422;2024-03-08T05:12:00;99307.59;;;-6.96
28803;BMP280;15949;55.656;37.422;2024-03-08T05:17:07;99322.44;;;-6.99
28803;BMP280;15949;55.656;37.422;2024-03-08T05:22:13;99303.31;;;-6.95
28803;BMP280;15949;55.656;37.422;2024-03-08T05:27:19;99296.84;;;-6.73
28803;BMP280;15949;55.656;37.422;2024-03-08T05:32:24;99294.78;;;-6.65
28803;BMP280;15949;55.656;37.422;2024-03-08T05:37:31;99287.19;;;-6.65
28803;BMP280;15949;55.656;37.422;2024-03-08T05:42:37;99290.53;;;-6.52
28803;BMP280;15949;55.656;37.422;2024-03-08T05:47:43;99295.41;;;-6.51
28803;BMP280;15949;55.656;37.422;2024-03-08T05:52:49;99296.09;;;-6.44
28803;BMP280;15949;55.656;37.422;2024-03-08T05:57:55;99297.94;;;-6.33
28803;BMP280;15949;55.656;37.422;2024-03-08T06:03:02;99297.31;;;-6.17
28803;BMP280;15949;55.656;37.422;2024-03-08T06:08:08;99302.41;;;-6.17
28803;BMP280;15949;55.656;37.422;2024-03-08T06:13:14;99306.50;;;-6.34
28803;BMP280;15949;55.656;37.422;2024-03-08T06:18:19;99286.38;;;-6.29
28803;BMP280;15949;55.656;37.422;2024-03-08T06:23:26;99291.19;;;-5.97
28803;BMP280;15949;55.656;37.422;2024-03-08T06:28:33;99281.31;;;-5.87
28803;BMP280;15949;55.656;37.422;2024-03-08T06:33:40;99287.28;;;-5.70
28803;BMP280;15949;55.656;37.422;2024-03-08T06:38:46;99270.09;;;-5.45
28803;BMP280;15949;55.656;37.422;2024-03-08T06:43:52;99278.72;;;-5.57
28803;BMP280;15949;55.656;37.422;2024-03-08T06:49:02;99283.34;;;-5.43
28803;BMP280;15949;55.656;37.422;2024-03-08T06:54:08;99276.72;;;-5.20
28803;BMP280;15949;55.656;37.422;2024-03-08T06:59:14;99275.59;;;-5.13
28803;BMP280;15949;55.656;37.422;2024-03-08T07:04:20;99278.78;;;-5.06
28803;BMP280;15949;55.656;37.422;2024-03-08T07:09:27;99280.34;;;-5.05
28803;BMP280;15949;55.656;37.422;2024-03-08T07:14:33;99277.81;;;-5.05
28803;BMP280;15949;55.656;37.422;2024-03-08T07:19:39;99283.09;;;-4.95
28803;BMP280;15949;55.656;37.422;2024-03-08T07:24:45;99271.00;;;-4.76
28803;BMP280;15949;55.656;37.422;2024-03-08T07:30:00;99277.06;;;-4.77
28803;BMP280;15949;55.656;37.422;2024-03-08T07:35:06;99283.53;;;-4.46
28803;BMP280;15949;55.656;37.422;2024-03-08T07:40:12;99280.97;;;-4.58
28803;BMP280;15949;55.656;37.422;2024-03-08T07:45:19;99282.28;;;-4.43
28803;BMP280;15949;55.656;37.422;2024-03-08T07:50:25;99281.19;;;-4.19
28803;BMP280;15949;55.656;37.422;2024-03-08T07:55:31;99279.44;;;-4.02
28803;BMP280;15949;55.656;37.422;2024-03-08T08:00:37;99275.78;;;-3.73
28803;BMP280;15949;55.656;37.422;2024-03-08T08:05:43;99264.53;;;-3.77
28803;BMP280;15949;55.656;37.422;2024-03-08T08:10:48;99259.66;;;-3.62
28803;BMP280;15949;55.656;37.422;2024-03-08T08:15:55;99258.13;;;-3.63
28803;BMP280;15949;55.656;37.422;2024-03-08T08:21:05;99254.59;;;-3.18
28803;BMP280;15949;55.656;37.422;2024-03-08T08:26:13;99269.66;;;-3.38
28803;BMP280;15949;55.656;37.422;2024-03-08T08:31:19;99257.50;;;-3.09
28803;BMP280;15949;55.656;37.422;2024-03-08T08:36:25;99269.72;;;-3.11
28803;BMP280;15949;55.656;37.422;2024-03-08T08:41:31;99254.88;;;-3.15
28803;BMP280;15949;55.656;37.422;2024-03-08T08:46:38;99258.47;;;-3.16
28803;BMP280;15949;55.656;37.422;2024-03-08T08:51:51;99259.56;;;-3.28
28803;BMP280;15949;55.656;37.422;2024-03-08T08:56:58;99255.44;;;-3.13
28803;BMP280;15949;55.656;37.422;2024-03-08T09:02:04;99257.28;;;-3.08
28803;BMP280;15949;55.656;37.422;2024-03-08T09:07:10;99255.34;;;-3.01
28803;BMP280;15949;55.656;37.422;2024-03-08T09:12:16;99257.41;;;-2.98
28803;BMP280;15949;55.656;37.422;2024-03-08T09:17:22;99257.41;;;-2.76
28803;BMP280;15949;55.656;37.422;2024-03-08T09:22:28;99257.97;;;-2.69
28803;BMP280;15949;55.656;37.422;2024-03-08T09:27:34;99261.44;;;-2.53
28803;BMP280;15949;55.656;37.422;2024-03-08T09:32:39;99251.63;;;-2.40
28803;BMP280;15949;55.656;37.422;2024-03-08T09:37:45;99242.09;;;-2.49
28803;BMP280;15949;55.656;37.422;2024-03-08T09:42:53;99237.53;;;-2.42
28803;BMP280;15949;55.656;37.422;2024-03-08T09:48:01;99234.13;;;-1.89
28803;BMP280;15949;55.656;37.422;2024-03-08T09:53:07;99242.88;;;-1.70
28803;BMP280;15949;55.656;37.422;2024-03-08T09:58:17;99242.38;;;-1.72
28803;BMP280;15949;55.656;37.422;2024-03-08T10:03:41;99236.66;;;-1.42
28803;BMP280;15949;55.656;37.422;2024-03-08T10:08:48;99237.19;;;-1.30
28803;BMP280;15949;55.656;37.422;2024-03-08T10:13:54;99233.44;;;-1.07
28803;BMP280;15949;55.656;37.422;2024-03-08T10:19:00;99246.16;;;-1.27
28803;BMP280;15949;55.656;37.422;2024-03-08T10:24:11;99238.25;;;-1.16
28803;BMP280;15949;55.656;37.422;2024-03-08T10:29:19;99226.03;;;-1.04
28803;BMP280;15949;55.656;37.422;2024-03-08T10:34:26;99229.13;;;-0.76
28803;BMP280;15949;55.656;37.422;2024-03-08T10:39:36;99226.34;;;-0.65
28803;BMP280;15949;55.656;37.422;2024-03-08T10:45:42;99229.13;;;-0.76
28803;BMP280;15949;55.656;37.422;2024-03-08T10:50:42;99219.66;;;-0.76
28803;BMP280;15949;55.656;37.422;2024-03-08T10:55:53;99222.00;;;-0.59
28803;BMP280;15949;55.656;37.422;2024-03-08T11:00:59;99219.44;;;-0.59
28803;BMP280;15949;55.656;37.422;2024-03-08T11:06:10;99211.50;;;-0.58
28803;BMP280;15949;55.656;37.422;2024-03-08T11:11:31;99218.84;;;-1.07
28803;BMP280;15949;55.656;37.422;2024-03-08T11:16:38;99216.50;;;-1.28
28803;BMP280;15949;55.656;37.422;2024-03-08T11:21:46;99220.22;;;-1.56
28803;BMP280;15949;55.656;37.422;2024-03-08T11:26:57;99213.16;;;-1.44
28803;BMP280;15949;55.656;37.422;2024-03-08T11:32:07;99215.81;;;-0.94
28803;BMP280;15949;55.656;37.422;2024-03-08T11:37:18;99218.91;;;-0.71
28803;BMP280;15949;55.656;37.422;2024-03-08T11:42:25;99213.81;;;-0.56
28803;BMP280;15949;55.656;37.422;2024-03-08T11:47:35;99220.22;;;-0.59
28803;BMP280;15949;55.656;37.422;2024-03-08T11:52:41;99212.78;;;-0.60
28803;BMP280;15949;55.656;37.422;2024-03-08T11:57:48;99216.13;;;-0.45
28803;BMP280;15949;55.656;37.422;2024-03-08T12:03:02;99213.56;;;-0.60
28803;BMP280;15949;55.656;37.422;2024-03-08T12:08:08;99213.78;;;-0.11
28803;BMP280;15949;55.656;37.422;2024-03-08T12:13:18;99217.84;;;-0.05
28803;BMP280;15949;55.656;37.422;2024-03-08T12:18:25;99207.63;;;-0.35
28803;BMP280;15949;55.656;37.422;2024-03-08T12:23:32;99213.81;;;-0.56
28803;BMP280;15949;55.656;37.422;2024-03-08T12:28:40;99213.28;;;-0.53
28803;BMP280;15949;55.656;37.422;2024-03-08T12:33:49;99218.41;;;-0.63
28803;BMP280;15949;55.656;37.422;2024-03-08T12:38:55;99217.63;;;-0.54
28803;BMP280;15949;55.656;37.422;2024-03-08T12:44:01;99220.47;;;-0.55
28803;BMP280;15949;55.656;37.422;2024-03-08T12:49:08;99216.38;;;-0.56
28803;BMP280;15949;55.656;37.422;2024-03-08T12:54:15;99224.84;;;-0.46
28803;BMP280;15949;55.656;37.422;2024-03-08T12:59:21;99226.34;;;-0.19
28803;BMP280;15949;55.656;37.422;2024-03-08T13:04:27;99219.94;;;-0.32
28803;BMP280;15949;55.656;37.422;2024-03-08T13:09:33;99211.78;;;-0.54
28803;BMP280;15949;55.656;37.422;2024-03-08T13:14:42;99227.34;;;-0.71
28803;BMP280;15949;55.656;37.422;2024-03-08T13:19:48;99220.44;;;-0.35
28803;BMP280;15949;55.656;37.422;2024-03-08T13:24:54;99231.97;;;-0.27
28803;BMP280;15949;55.656;37.422;2024-03-08T13:30:00;99233.75;;;-0.13
28803;BMP280;15949;55.656;37.422;2024-03-08T13:35:07;99235.31;;;-0.52
28803;BMP280;15949;55.656;37.422;2024-03-08T13:40:29;99226.31;;;-0.75
28803;BMP280;15949;55.656;37.422;2024-03-08T13:45:36;99227.31;;;-0.81
28803;BMP280;15949;55.656;37.422;2024-03-08T13:50:43;99235.81;;;-0.85
28803;BMP280;15949;55.656;37.422;2024-03-08T13:55:49;99227.06;;;-1.00
28803;BMP280;15949;55.656;37.422;2024-03-08T14:00:55;99227.06;;;-1.05
28803;BMP280;15949;55.656;37.422;2024-03-08T14:06:01;99217.59;;;-1.04
28803;BMP280;15949;55.656;37.422;2024-03-08T14:11:09;99213.13;;;-1.34
28803;BMP280;15949;55.656;37.422;2024-03-08T14:16:18;99212.09;;;-1.48
28803;BMP280;15949;55.656;37.422;2024-03-08T14:21:24;99218.78;;;-1.37
28803;BMP280;15949;55.656;37.422;2024-03-08T14:26:31;99222.97;;;-1.06
28803;BMP280;15949;55.656;37.422;2024-03-08T14:31:37;99232.13;;;-1.15
28803;BMP280;15949;55.656;37.422;2024-03-08T14:36:43;99239.81;;;-1.15
28803;BMP280;15949;55.656;37.422;2024-03-08T14:41:50;99243.31;;;-1.36
28803;BMP280;15949;55.656;37.422;2024-03-08T14:46:59;99241.00;;;-1.43
28803;BMP280;15949;55.656;37.422;2024-03-08T14:52:05;99239.47;;;-1.39
28803;BMP280;15949;55.656;37.422;2024-03-08T14:57:31;99242.22;;;-1.55
28803;BMP280;15949;55.656;37.422;2024-03-08T15:02:39;99238.13;;;-1.51
28803;BMP280;15949;55.656;37.422;2024-03-08T15:07:44;99241.75;;;-1.47
28803;BMP280;15949;55.656;37.422;2024-03-08T15:12:51;99242.47;;;-1.52
28803;BMP280;15949;55.656;37.422;2024-03-08T15:18:01;99244.47;;;-1.64
28803;BMP280;15949;55.656;37.422;2024-03-08T15:23:09;99247.50;;;-1.72
28803;BMP280;15949;55.656;37.422;2024-03-08T15:28:16;99242.03;;;-1.86
28803;BMP280;15949;55.656;37.422;2024-03-08T15:33:24;99257.56;;;-1.92
28803;BMP280;15949;55.656;37.422;2024-03-08T15:38:33;99257.22;;;-2.06
28803;BMP280;15949;55.656;37.422;2024-03-08T15:43:41;99256.16;;;-2.10
28803;BMP280;15949;55.656;37.422;2024-03-08T15:48:48;99259.66;;;-2.21
28803;BMP280;15949;55.656;37.422;2024-03-08T15:53:54;99258.31;;;-2.29
28803;BMP280;15949;55.656;37.422;2024-03-08T15:59:01;99272.28;;;-2.36
28803;BMP280;15949;55.656;37.422;2024-03-08T16:04:11;99274.81;;;-2.41
28803;BMP280;15949;55.656;37.422;2024-03-08T16:09:17;99264.81;;;-2.48
28803;BMP280;15949;55.656;37.422;2024-03-08T16:14:23;99268.31;;;-2.54
28803;BMP280;15949;55.656;37.422;2024-03-08T16:19:29;99262.88;;;-2.62
28803;BMP280;15949;55.656;37.422;2024-03-08T16:24:38;99268.16;;;-2.69
28803;BMP280;15949;55.656;37.422;2024-03-08T16:29:44;99274.63;;;-2.61
28803;BMP280;15949;55.656;37.422;2024-03-08T16:34:52;99272.09;;;-2.61
28803;BMP280;15949;55.656;37.422;2024-03-08T16:39:58;99269.72;;;-2.68
28803;BMP280;15949;55.656;37.422;2024-03-08T16:45:06;99276.31;;;-2.72
28803;BMP280;15949;55.656;37.422;2024-03-08T16:50:16;99261.78;;;-2.72
28803;BMP280;15949;55.656;37.422;2024-03-08T16:55:22;99269.13;;;-2.75
28803;BMP280;15949;55.656;37.422;2024-03-08T17:00:28;99272.50;;;-2.70
28803;BMP280;15949;55.656;37.422;2024-03-08T17:05:33;99273.53;;;-2.65
28803;BMP280;15949;55.656;37.422;2024-03-08T17:10:39;99269.03;;;-2.58
28803;BMP280;15949;55.656;37.422;2024-03-08T17:15:46;99265.78;;;-2.54
28803;BMP280;15949;55.656;37.422;2024-03-08T17:20:53;99264.50;;;-2.51
28803;BMP280;15949;55.656;37.422;2024-03-08T17:26:00;99274.25;;;-2.48
28803;BMP280;15949;55.656;37.422;2024-03-08T17:31:08;99275.69;;;-2.57
28803;BMP280;15949;55.656;37.422;2024-03-08T17:36:17;99274.88;;;-2.63
28803;BMP280;15949;55.656;37.422;2024-03-08T17:41:24;99268.81;;;-2.79
28803;BMP280;15949;55.656;37.422;2024-03-08T17:46:31;99275.91;;;-2.86
28803;BMP280;15949;55.656;37.422;2024-03-08T17:51:38;99273.78;;;-2.94
28803;BMP280;15949;55.656;37.422;2024-03-08T17:56:44;99271.09;;;-3.04
28803;BMP280;15949;55.656;37.422;2024-03-08T18:01:51;99265.56;;;-3.18
28803;BMP280;15949;55.656;37.422;2024-03-08T18:06:56;99270.25;;;-3.31
28803;BMP280;15949;55.656;37.422;2024-03-08T18:12:02;99270.72;;;-3.34
28803;BMP280;15949;55.656;37.422;2024-03-08T18:17:08;99269.81;;;-3.45
28803;BMP280;15949;55.656;37.422;2024-03-08T18:22:17;99279.94;;;-3.50
28803;BMP280;15949;55.656;37.422;2024-03-08T18:27:22;99278.63;;;-3.52
28803;BMP280;15949;55.656;37.422;2024-03-08T18:32:30;99280.03;;;-3.62
28803;BMP280;15949;55.656;37.422;2024-03-08T18:37:37;99282.03;;;-3.64
28803;BMP280;15949;55.656;37.422;2024-03-08T18:42:45;99279.66;;;-3.70
28803;BMP280;15949;55.656;37.422;2024-03-08T18:47:52;99278.88;;;-3.71
28803;BMP280;15949;55.656;37.422;2024-03-08T18:52:58;99272.63;;;-3.80
28803;BMP280;15949;55.656;37.422;2024-03-08T18:58:04;99275.59;;;-3.88
28803;BMP280;15949;55.656;37.422;2024-03-08T19:03:11;99272.47;;;-3.90
28803;BMP280;15949;55.656;37.422;2024-03-08T19:08:18;99273.97;;;-3.94
28803;BMP280;15949;55.656;37.422;2024-03-08T19:13:27;99277.41;;;-4.00
28803;BMP280;15949;55.656;37.422;2024-03-08T19:18:33;99276.22;;;-4.09
28803;BMP280;15949;55.656;37.422;2024-03-08T19:23:40;99274.94;;;-4.12
28803;BMP280;15949;55.656;37.422;2024-03-08T19:28:48;99276.16;;;-4.14
28803;BMP280;15949;55.656;37.422;2024-03-08T19:33:54;99275.22;;;-4.08
28803;BMP280;15949;55.656;37.422;2024-03-08T19:39:00;99268.16;;;-4.06
28803;BMP280;15949;55.656;37.422;2024-03-08T19:44:07;99269.16;;;-4.07
28803;BMP280;15949;55.656;37.422;2024-03-08T19:49:13;99262.28;;;-4.07
28803;BMP280;15949;55.656;37.422;2024-03-08T19:54:22;99263.97;;;-4.12
28803;BMP280;15949;55.656;37.422;2024-03-08T19:59:28;99273.63;;;-4.14
28803;BMP280;15949;55.656;37.422;2024-03-08T20:04:36;99280.16;;;-4.18
28803;BMP280;15949;55.656;37.422;2024-03-08T20:09:42;99283.84;;;-4.09
28803;BMP280;15949;55.656;37.422;2024-03-08T20:14:48;99280.72;;;-3.99
28803;BMP280;15949;55.656;37.422;2024-03-08T20:19:54;99283.13;;;-3.93
28803;BMP280;15949;55.656;37.422;2024-03-08T20:25:00;99270.16;;;-3.91
28803;BMP280;15949;55.656;37.422;2024-03-08T20:30:07;99271.72;;;-3.90
28803;BMP280;15949;55.656;37.422;2024-03-08T20:35:17;99282.16;;;-3.92
28803;BMP280;15949;55.656;37.422;2024-03-08T20:40:28;99269.47;;;-3.87
28803;BMP280;15949;55.656;37.422;2024-03-08T20:45:38;99261.69;;;-3.80
28803;BMP280;15949;55.656;37.422;2024-03-08T20:50:43;99265.09;;;-3.75
28803;BMP280;15949;55.656;37.422;2024-03-08T20:55:50;99265.16;;;-3.70
28803;BMP280;15949;55.656;37.422;2024-03-08T21:00:58;99266.53;;;-3.62
28803;BMP280;15949;55.656;37.422;2024-03-08T21:06:04;99263.06;;;-3.56
28803;BMP280;15949;55.656;37.422;2024-03-08T21:11:12;99265.91;;;-3.52
28803;BMP280;15949;55.656;37.422;2024-03-08T21:16:18;99263.09;;;-3.51
28803;BMP280;15949;55.656;37.422;2024-03-08T21:21:24;99271.06;;;-3.47
28803;BMP280;15949;55.656;37.422;2024-03-08T21:26:31;99277.66;;;-3.46
28803;BMP280;15949;55.656;37.422;2024-03-08T21:31:37;99272.06;;;-3.48
28803;BMP280;15949;55.656;37.422;2024-03-08T21:36:42;99268.16;;;-3.56
28803;BMP280;15949;55.656;37.422;2024-03-08T21:41:50;99273.88;;;-3.66
28803;BMP280;15949;55.656;37.422;2024-03-08T21:46:55;99274.78;;;-3.72
28803;BMP280;15949;55.656;37.422;2024-03-08T21:52:01;99279.34;;;-3.74
28803;BMP280;15949;55.656;37.422;2024-03-08T21:57:09;99274.78;;;-3.72
28803;BMP280;15949;55.656;37.422;2024-03-08T22:02:15;99275.94;;;-3.63
28803;BMP280;15949;55.656;37.422;2024-03-08T22:07:21;99277.56;;;-3.56
28803;BMP280;15949;55.656;37.422;2024-03-08T22:12:27;99279.63;;;-3.53
28803;BMP280;15949;55.656;37.422;2024-03-08T22:17:35;99282.94;;;-3.53
28803;BMP280;15949;55.656;37.422;2024-03-08T22:22:41;99280.25;;;-3.63
28803;BMP280;15949;55.656;37.422;2024-03-08T22:27:50;99275.47;;;-3.60
28803;BMP280;15949;55.656;37.422;2024-03-08T22:32:57;99285.59;;;-3.65
28803;BMP280;15949;55.656;37.422;2024-03-08T22:38:03;99289.66;;;-3.64
28803;BMP280;15949;55.656;37.422;2024-03-08T22:43:12;99293.75;;;-3.63
28803;BMP280;15949;55.656;37.422;2024-03-08T22:48:18;99292.00;;;-3.62
28803;BMP280;15949;55.656;37.422;2024-03-08T22:53:23;99290.13;;;-3.67
28803;BMP280;15949;55.656;37.422;2024-03-08T22:58:30;99291.44;;;-3.64
28803;BMP280;15949;55.656;37.422;2024-03-08T23:03:35;99285.59;;;-3.65
28803;BMP280;15949;55.656;37.422;2024-03-08T23:08:43;99291.13;;;-3.68
28803;BMP280;15949;55.656;37.422;2024-03-08T23:13:50;99296.69;;;-3.71
28803;BMP280;15949;55.656;37.422;2024-03-08T23:18:56;99300.16;;;-3.77
28803;BMP280;15949;55.656;37.422;2024-03-08T23:24:03;99305.72;;;-3.80
28803;BMP280;15949;55.656;37.422;2024-03-08T23:29:10;99302.88;;;-3.83
28803;BMP280;15949;55.656;37.422;2024-03-08T23:34:17;99307.44;;;-3.85
28803;BMP280;15949;55.656;37.422;2024-03-08T23:39:22;99312.44;;;-3.90
28803;BMP280;15949;55.656;37.422;2024-03-08T23:44:31;99313.13;;;-3.95
28803;BMP280;15949;55.656;37.422;2024-03-08T23:49:37;99302.63;;;-3.98
28803;BMP280;15949;55.656;37.422;2024-03-08T23:54:44;99307.94;;;-4.00
28803;BMP280;15949;55.656;37.422;2024-03-08T23:59:49;99301.09;;;-3.99
